createdAt,value
2019-05-13T00:00:05.687Z,2.50
2019-05-13T00:02:34.789Z,2.10
2019-05-13T00:05:04.002Z,1.70
2019-05-13T00:07:34.223Z,2.20
2019-05-13T00:10:04.163Z,2.60
2019-05-13T00:12:35.392Z,2.30
2019-05-13T00:15:04.310Z,2.02
2019-05-13T00:17:33.867Z,2.03
2019-05-13T00:20:03.940Z,2.40
2019-05-13T00:22:33.973Z,2.35
2019-05-13T00:25:04.016Z,2.22
2019-05-13T00:27:33.847Z,2.20
2019-05-13T00:30:04.255Z,2.00
2019-05-13T00:32:33.719Z,1.97
2019-05-13T00:35:03.939Z,2.20
2019-05-13T00:37:33.408Z,2.20
2019-05-13T00:40:03.964Z,2.10
2019-05-13T00:42:33.481Z,3.05
2019-05-13T00:45:04.082Z,3.50
2019-05-13T00:47:34.195Z,4.35
2019-05-13T00:50:03.731Z,4.90
2019-05-13T00:52:33.951Z,4.10
2019-05-13T00:55:04.266Z,3.70
2019-05-13T00:57:34.186Z,3.00
2019-05-13T01:00:03.624Z,3.20
2019-05-13T01:02:33.793Z,2.60
2019-05-13T01:05:04.336Z,2.70
2019-05-13T01:07:34.140Z,2.73
2019-05-13T01:10:04.226Z,2.27
2019-05-13T01:12:34.487Z,2.37
2019-05-13T01:15:04.089Z,2.55
2019-05-13T01:17:34.018Z,2.30
2019-05-13T01:20:04.213Z,2.87
2019-05-13T01:22:34.373Z,2.73
2019-05-13T01:25:04.047Z,2.55
2019-05-13T01:27:33.451Z,2.42
2019-05-13T01:30:04.133Z,2.60
2019-05-13T01:32:34.311Z,2.10
2019-05-13T01:35:04.604Z,2.37
2019-05-13T01:37:42.339Z,2.65
2019-05-13T01:40:05.170Z,2.10
2019-05-13T01:42:34.311Z,2.70
2019-05-13T01:45:04.646Z,2.40
2019-05-13T01:47:34.507Z,2.20
2019-05-13T01:50:04.140Z,2.50
2019-05-13T01:52:34.370Z,2.50
2019-05-13T01:55:04.155Z,2.35
2019-05-13T01:57:34.283Z,2.95
2019-05-13T02:00:04.662Z,2.40
2019-05-13T02:02:33.803Z,2.30
2019-05-13T02:05:03.935Z,2.30
2019-05-13T02:07:33.516Z,2.35
2019-05-13T02:10:04.352Z,2.50
2019-05-13T02:12:33.990Z,2.00
2019-05-13T02:15:04.472Z,2.50
2019-05-13T02:17:33.757Z,2.45
2019-05-13T02:20:03.981Z,2.17
2019-05-13T02:22:33.616Z,2.30
2019-05-13T02:25:04.418Z,2.05
2019-05-13T02:27:34.473Z,2.12
2019-05-13T02:30:05.548Z,2.25
2019-05-13T02:32:34.014Z,2.30
2019-05-13T02:35:03.153Z,2.10
2019-05-13T02:37:34.306Z,3.00
2019-05-13T02:40:03.928Z,2.40
2019-05-13T02:42:33.324Z,2.05
2019-05-13T02:45:03.808Z,3.10
2019-05-13T02:47:33.218Z,2.43
2019-05-13T02:50:05.077Z,2.60
2019-05-13T02:52:33.605Z,2.25
2019-05-13T02:55:03.959Z,2.40
2019-05-13T02:57:33.299Z,2.67
2019-05-13T03:00:04.218Z,2.90
2019-05-13T03:02:32.956Z,2.40
2019-05-13T03:05:03.178Z,2.20
2019-05-13T03:07:33.356Z,3.08
2019-05-13T03:10:04.198Z,2.63
2019-05-13T03:12:33.053Z,2.42
2019-05-13T03:15:02.788Z,2.87
2019-05-13T03:17:43.272Z,2.90
2019-05-13T03:20:16.565Z,2.45
2019-05-13T03:22:43.504Z,2.80
2019-05-13T03:25:13.175Z,2.40
2019-05-13T03:27:42.964Z,3.30
2019-05-13T03:30:16.353Z,2.52
2019-05-13T03:32:51.765Z,2.60
2019-05-13T03:35:16.494Z,2.40
2019-05-13T03:37:44.041Z,2.80
2019-05-13T03:40:13.644Z,2.62
2019-05-13T03:42:45.345Z,2.80
2019-05-13T03:45:14.325Z,3.05
2019-05-13T03:47:43.436Z,3.00
2019-05-13T03:50:13.048Z,3.22
2019-05-13T03:52:43.338Z,3.05
2019-05-13T03:55:13.145Z,2.63
2019-05-13T03:57:42.775Z,2.75
2019-05-13T04:00:13.129Z,2.58
2019-05-13T04:02:42.964Z,3.70
2019-05-13T04:05:13.327Z,2.72
2019-05-13T04:07:43.652Z,2.95
2019-05-13T04:10:13.307Z,2.60
2019-05-13T04:12:42.803Z,2.90
2019-05-13T04:15:12.733Z,3.45
2019-05-13T04:17:42.779Z,3.20
2019-05-13T04:20:12.721Z,2.70
2019-05-13T04:22:42.613Z,2.80
2019-05-13T04:25:12.842Z,2.95
2019-05-13T04:27:42.906Z,3.60
2019-05-13T04:30:13.449Z,3.17
2019-05-13T04:32:44.204Z,3.30
2019-05-13T04:35:13.431Z,3.40
2019-05-13T04:37:43.252Z,3.98
2019-05-13T04:40:12.852Z,3.20
2019-05-13T04:42:42.634Z,3.40
2019-05-13T04:45:13.379Z,3.60
2019-05-13T04:47:43.355Z,3.10
2019-05-13T04:50:12.978Z,3.40
2019-05-13T04:52:42.456Z,3.27
2019-05-13T04:55:13.137Z,3.30
2019-05-13T04:57:43.748Z,3.70
2019-05-13T05:00:13.228Z,3.80
2019-05-13T05:02:57.345Z,3.45
2019-05-13T05:05:52.649Z,3.45
2019-05-13T05:08:33.397Z,3.83
2019-05-13T05:11:32.358Z,3.58
2019-05-13T05:14:26.932Z,3.30
2019-05-13T05:17:35.929Z,2.95
2019-05-13T05:20:32.240Z,3.20
2019-05-13T05:23:15.512Z,3.80
2019-05-13T05:26:26.687Z,3.40
2019-05-13T05:29:32.855Z,3.52
2019-05-13T05:32:44.129Z,3.60
2019-05-13T05:35:32.412Z,3.90
2019-05-13T05:38:34.254Z,3.55
2019-05-13T05:41:05.021Z,3.30
2019-05-13T05:43:36.153Z,4.13
2019-05-13T05:46:05.310Z,3.40
2019-05-13T05:48:35.931Z,3.40
2019-05-13T05:51:05.234Z,3.25
2019-05-13T05:53:35.773Z,4.30
2019-05-13T05:56:05.057Z,3.70
2019-05-13T05:58:34.816Z,3.90
2019-05-13T06:01:04.473Z,3.80
2019-05-13T06:03:35.838Z,3.60
2019-05-13T06:06:04.933Z,3.67
2019-05-13T06:08:33.962Z,4.05
2019-05-13T06:11:04.205Z,3.50
2019-05-13T06:13:34.535Z,3.90
2019-05-13T06:16:03.976Z,3.87
2019-05-13T06:18:33.795Z,3.30
2019-05-13T06:21:04.026Z,3.60
2019-05-13T06:23:33.143Z,3.65
2019-05-13T06:26:02.403Z,5.90
2019-05-13T06:28:32.229Z,4.10
2019-05-13T06:31:02.568Z,3.70
2019-05-13T06:33:32.097Z,3.72
2019-05-13T06:36:01.434Z,4.50
2019-05-13T06:38:31.670Z,3.75
2019-05-13T06:41:06.743Z,3.80
2019-05-13T06:43:31.922Z,4.00
2019-05-13T06:46:01.858Z,3.90
2019-05-13T06:48:32.369Z,4.60
2019-05-13T06:51:02.611Z,3.85
2019-05-13T06:53:32.275Z,3.50
2019-05-13T06:56:04.333Z,3.42
2019-05-13T06:58:33.497Z,3.45
2019-05-13T07:01:03.684Z,4.00
2019-05-13T07:03:33.053Z,3.75
2019-05-13T07:06:01.980Z,3.70
2019-05-13T07:08:31.412Z,4.55
2019-05-13T07:11:17.167Z,3.75
2019-05-13T07:13:32.246Z,3.80
2019-05-13T07:16:01.480Z,3.70
2019-05-13T07:18:32.323Z,3.95
2019-05-13T07:21:02.214Z,3.45
2019-05-13T07:23:31.964Z,3.45
2019-05-13T07:26:01.916Z,3.67
2019-05-13T07:28:32.292Z,2.85
2019-05-13T07:31:02.242Z,3.30
2019-05-13T07:33:32.185Z,3.87
2019-05-13T07:36:03.518Z,6.10
2019-05-13T07:38:32.793Z,3.27
2019-05-13T07:41:03.926Z,3.62
2019-05-13T07:43:32.986Z,3.10
2019-05-13T07:46:02.200Z,3.80
2019-05-13T07:48:32.081Z,2.90
2019-05-13T07:51:04.315Z,3.90
2019-05-13T07:53:32.321Z,3.60
2019-05-13T07:56:02.109Z,4.10
2019-05-13T07:58:36.828Z,3.80
2019-05-13T08:01:02.553Z,3.90
2019-05-13T08:03:31.883Z,4.12
2019-05-13T08:06:02.021Z,3.77
2019-05-13T08:08:32.343Z,3.55
2019-05-13T08:11:01.580Z,3.60
2019-05-13T08:13:31.445Z,3.58
2019-05-13T08:16:01.860Z,3.58
2019-05-13T08:18:32.059Z,2.80
2019-05-13T08:21:02.263Z,2.47
2019-05-13T08:23:32.346Z,2.58
2019-05-13T08:26:02.184Z,3.30
2019-05-13T08:28:32.361Z,3.10
2019-05-13T08:31:02.041Z,2.52
2019-05-13T08:33:32.125Z,2.52
2019-05-13T08:36:01.741Z,2.60
2019-05-13T08:38:31.855Z,2.60
2019-05-13T08:41:01.972Z,2.70
2019-05-13T08:43:31.813Z,2.67
2019-05-13T08:46:01.957Z,2.80
2019-05-13T08:48:32.296Z,2.43
2019-05-13T08:51:03.119Z,2.30
2019-05-13T08:53:32.418Z,2.33
2019-05-13T08:56:01.874Z,1.80
2019-05-13T08:58:32.106Z,2.70
2019-05-13T09:01:02.456Z,1.95
2019-05-13T09:03:32.508Z,2.30
2019-05-13T09:06:03.046Z,2.08
2019-05-13T09:08:32.208Z,1.98
2019-05-13T09:11:04.921Z,1.80
2019-05-13T09:13:34.469Z,1.80
2019-05-13T09:16:08.164Z,1.80
2019-05-13T09:18:56.401Z,1.50
2019-05-13T09:21:25.300Z,1.87
2019-05-13T09:23:54.947Z,1.92
2019-05-13T09:26:23.901Z,2.17
2019-05-13T09:28:52.983Z,2.00
2019-05-13T09:31:22.276Z,2.37
2019-05-13T09:33:52.089Z,2.02
2019-05-13T09:36:21.869Z,1.70
2019-05-13T09:38:52.499Z,1.80
2019-05-13T09:41:22.181Z,1.70
2019-05-13T09:43:51.536Z,2.60
2019-05-13T09:46:22.616Z,2.20
2019-05-13T09:48:51.762Z,1.70
2019-05-13T09:51:21.646Z,2.20
2019-05-13T09:53:51.997Z,1.87
2019-05-13T09:56:22.405Z,1.90
2019-05-13T09:58:51.790Z,1.90
2019-05-13T10:01:22.636Z,2.00
2019-05-13T10:03:54.817Z,2.40
2019-05-13T10:06:22.533Z,2.37
2019-05-13T10:08:52.810Z,1.90
2019-05-13T10:11:22.280Z,1.60
2019-05-13T10:13:51.903Z,1.60
2019-05-13T10:16:22.027Z,1.87
2019-05-13T10:18:52.484Z,2.30
2019-05-13T10:21:22.055Z,2.10
2019-05-13T10:23:52.257Z,2.58
2019-05-13T10:26:22.550Z,2.62
2019-05-13T10:28:52.057Z,1.75
2019-05-13T10:31:22.040Z,1.57
2019-05-13T10:33:51.657Z,2.02
2019-05-13T10:36:22.207Z,2.50
2019-05-13T10:38:52.305Z,2.20
2019-05-13T10:41:22.905Z,2.00
2019-05-13T10:43:52.236Z,2.37
2019-05-13T10:46:22.149Z,1.90
2019-05-13T10:48:52.694Z,1.60
2019-05-13T10:51:22.490Z,1.40
2019-05-13T10:53:53.559Z,1.70
2019-05-13T10:56:22.596Z,2.15
2019-05-13T10:58:53.343Z,2.00
2019-05-13T11:01:34.159Z,1.85
2019-05-13T11:04:03.452Z,1.92
2019-05-13T11:06:32.672Z,1.85
2019-05-13T11:09:02.306Z,1.80
2019-05-13T11:11:33.060Z,1.40
2019-05-13T11:14:10.056Z,1.60
2019-05-13T11:16:32.893Z,1.50
2019-05-13T11:19:02.926Z,1.80
2019-05-13T11:21:32.262Z,1.65
2019-05-13T11:24:03.345Z,1.70
2019-05-13T11:26:36.163Z,1.70
2019-05-13T11:29:02.987Z,1.75
2019-05-13T11:31:32.911Z,2.00
2019-05-13T11:34:02.206Z,1.80
2019-05-13T11:36:33.289Z,2.17
2019-05-13T11:39:02.955Z,1.80
2019-05-13T11:41:32.706Z,2.20
2019-05-13T11:44:12.714Z,2.33
2019-05-13T11:46:33.293Z,2.70
2019-05-13T11:49:02.781Z,2.30
2019-05-13T11:51:32.360Z,1.72
2019-05-13T11:54:02.596Z,1.80
2019-05-13T11:56:33.785Z,1.40
2019-05-13T11:59:04.411Z,2.00
2019-05-13T12:01:33.702Z,1.93
2019-05-13T12:04:03.110Z,1.82
2019-05-13T12:06:33.894Z,1.37
2019-05-13T12:09:03.800Z,1.70
2019-05-13T12:11:33.302Z,1.80
2019-05-13T12:14:02.690Z,1.60
2019-05-13T12:16:35.032Z,1.40
2019-05-13T12:21:33.154Z,1.50
2019-05-13T12:24:09.494Z,2.00
2019-05-13T12:26:33.409Z,1.70
2019-05-13T12:29:03.005Z,1.40
2019-05-13T12:31:33.566Z,1.75
2019-05-13T12:34:03.695Z,2.80
2019-05-13T12:36:33.402Z,2.30
2019-05-13T12:39:02.521Z,2.20
2019-05-13T12:41:33.041Z,3.20
2019-05-13T12:44:02.231Z,3.10
2019-05-13T12:46:31.248Z,2.60
2019-05-13T12:49:03.702Z,2.65
2019-05-13T12:51:32.518Z,1.75
2019-05-13T12:54:03.759Z,1.90
2019-05-13T12:56:33.374Z,1.57
2019-05-13T12:59:03.218Z,2.02
2019-05-13T13:01:34.623Z,2.52
2019-05-13T13:04:03.723Z,2.10
2019-05-13T13:06:40.246Z,1.85
2019-05-13T13:09:04.486Z,1.70
2019-05-13T13:11:33.491Z,1.30
2019-05-13T13:14:05.868Z,1.40
2019-05-13T13:17:16.749Z,1.70
2019-05-13T13:22:55.260Z,1.52
2019-05-13T13:25:24.215Z,1.60
2019-05-13T13:28:26.540Z,1.73
2019-05-13T13:31:04.117Z,1.37
2019-05-13T13:33:36.571Z,1.35
2019-05-13T13:36:19.107Z,1.60
2019-05-13T13:38:48.121Z,1.55
2019-05-13T13:41:22.721Z,1.70
2019-05-13T13:43:47.576Z,1.60
2019-05-13T13:46:42.312Z,1.57
2019-05-13T13:48:57.897Z,1.95
2019-05-13T13:51:27.187Z,1.55
2019-05-13T13:53:56.903Z,1.70
2019-05-13T13:56:25.909Z,2.25
2019-05-13T13:58:54.879Z,1.60
2019-05-13T14:01:27.451Z,2.00
2019-05-13T14:03:54.270Z,1.70
2019-05-13T14:07:03.038Z,1.80
2019-05-13T14:07:22.186Z,1.70
2019-05-13T14:08:54.153Z,1.85
2019-05-13T14:11:23.430Z,1.62
2019-05-13T14:13:52.666Z,2.30
2019-05-13T14:16:29.550Z,1.90
2019-05-13T14:18:52.726Z,1.80
2019-05-13T14:21:21.889Z,1.60
2019-05-13T14:23:51.977Z,1.50
2019-05-13T14:26:22.173Z,1.92
2019-05-13T14:29:02.389Z,1.60
2019-05-13T14:31:41.217Z,1.90
2019-05-13T14:34:22.321Z,1.60
2019-05-13T14:36:51.758Z,2.10
2019-05-13T14:39:24.253Z,1.62
2019-05-13T14:41:53.181Z,1.70
2019-05-13T14:44:22.850Z,1.80
2019-05-13T14:47:01.582Z,2.60
2019-05-13T14:49:31.689Z,1.98
2019-05-13T14:52:01.389Z,3.45
2019-05-13T14:54:33.352Z,2.27
2019-05-13T14:57:02.622Z,2.00
2019-05-13T14:59:31.711Z,2.58
2019-05-13T15:02:01.442Z,2.50
2019-05-13T15:04:32.493Z,3.20
2019-05-13T15:07:28.320Z,1.90
2019-05-13T15:10:07.183Z,2.90
2019-05-13T15:12:36.104Z,2.05
2019-05-13T15:18:22.308Z,1.85
2019-05-13T15:20:52.954Z,1.90
2019-05-13T15:23:31.715Z,1.50
2019-05-13T15:26:02.271Z,1.57
2019-05-13T15:28:31.978Z,2.20
2019-05-13T15:31:01.082Z,2.77
2019-05-13T15:33:35.307Z,1.80
2019-05-13T15:36:04.231Z,3.02
2019-05-13T15:38:37.500Z,2.65
2019-05-13T15:41:06.553Z,2.70
2019-05-13T15:43:35.535Z,2.20
2019-05-13T15:46:04.528Z,1.72
2019-05-13T15:48:33.659Z,2.47
2019-05-13T15:51:02.485Z,1.70
2019-05-13T15:53:32.219Z,1.70
2019-05-13T15:56:02.555Z,1.20
2019-05-13T15:58:40.191Z,2.20
2019-05-13T16:01:03.085Z,2.10
2019-05-13T16:03:32.355Z,1.20
2019-05-13T16:06:01.839Z,1.30
2019-05-13T16:08:32.030Z,1.40
2019-05-13T16:11:02.212Z,1.70
2019-05-13T16:13:32.022Z,1.10
2019-05-13T16:16:02.903Z,2.30
2019-05-13T16:18:32.005Z,2.02
2019-05-13T16:21:01.734Z,1.50
2019-05-13T16:23:32.349Z,1.90
2019-05-13T16:26:04.669Z,2.05
2019-05-13T16:28:33.601Z,1.80
2019-05-13T16:31:02.725Z,2.25
2019-05-13T16:33:31.994Z,2.37
2019-05-13T16:36:02.551Z,1.70
2019-05-13T16:38:32.880Z,1.95
2019-05-13T16:41:02.415Z,1.70
2019-05-13T16:43:32.079Z,2.10
2019-05-13T16:46:01.313Z,1.42
2019-05-13T16:48:32.389Z,1.50
2019-05-13T16:51:01.023Z,1.77
2019-05-13T16:53:31.496Z,1.70
2019-05-13T16:56:01.712Z,1.47
2019-05-13T16:58:32.454Z,1.50
2019-05-13T17:01:02.676Z,1.60
2019-05-13T17:03:32.112Z,1.55
2019-05-13T17:06:02.149Z,1.52
2019-05-13T17:08:31.985Z,1.50
2019-05-13T17:11:02.180Z,1.77
2019-05-13T17:13:31.755Z,1.70
2019-05-13T17:16:01.562Z,1.50
2019-05-13T17:18:32.343Z,1.50
2019-05-13T17:21:01.694Z,1.90
2019-05-13T17:23:30.811Z,1.70
2019-05-13T17:26:01.933Z,2.10
2019-05-13T17:28:33.845Z,1.82
2019-05-13T17:31:02.164Z,1.60
2019-05-13T17:33:31.931Z,2.30
2019-05-13T17:36:01.940Z,2.90
2019-05-13T17:38:32.428Z,2.00
2019-05-13T17:41:02.312Z,2.00
2019-05-13T17:43:32.167Z,2.00
2019-05-13T17:46:01.901Z,1.40
2019-05-13T17:48:32.968Z,1.20
2019-05-13T17:51:01.610Z,2.10
2019-05-13T17:53:32.596Z,2.03
2019-05-13T17:56:02.394Z,1.55
2019-05-13T17:58:31.746Z,1.90
2019-05-13T18:01:01.783Z,1.60
2019-05-13T18:03:32.129Z,2.20
2019-05-13T18:06:02.374Z,1.65
2019-05-13T18:08:32.208Z,2.12
2019-05-13T18:11:02.347Z,2.02
2019-05-13T18:13:31.676Z,1.55
2019-05-13T18:16:02.407Z,1.50
2019-05-13T18:18:43.204Z,1.80
2019-05-13T18:21:03.362Z,1.95
2019-05-13T18:23:32.540Z,1.60
2019-05-13T18:26:02.081Z,1.62
2019-05-13T18:28:31.792Z,2.22
2019-05-13T18:31:01.768Z,2.70
2019-05-13T18:33:31.951Z,2.27
2019-05-13T18:36:01.994Z,2.27
2019-05-13T18:38:31.612Z,2.70
2019-05-13T18:41:01.742Z,2.22
2019-05-13T18:43:32.122Z,2.40
2019-05-13T18:46:02.329Z,2.20
2019-05-13T18:48:32.482Z,1.90
2019-05-13T18:51:02.084Z,1.70
2019-05-13T18:53:32.135Z,2.30
2019-05-13T18:56:02.305Z,1.90
2019-05-13T18:58:31.895Z,1.40
2019-05-13T19:01:01.631Z,2.37
2019-05-13T19:03:32.251Z,3.22
2019-05-13T19:06:01.805Z,1.90
2019-05-13T19:08:32.045Z,1.80
2019-05-13T19:11:01.433Z,2.60
2019-05-13T19:13:32.308Z,1.82
2019-05-13T19:16:03.306Z,2.55
2019-05-13T19:18:33.801Z,1.90
2019-05-13T19:21:04.806Z,1.65
2019-05-13T19:23:34.171Z,1.70
2019-05-13T19:26:04.952Z,1.90
2019-05-13T19:28:34.091Z,2.05
2019-05-13T19:31:06.210Z,1.80
2019-05-13T19:33:35.926Z,2.10
2019-05-13T19:36:05.527Z,2.10
2019-05-13T19:38:35.283Z,2.20
2019-05-13T19:41:04.357Z,2.25
2019-05-13T19:43:33.913Z,2.10
2019-05-13T19:46:03.136Z,2.95
2019-05-13T19:48:33.304Z,3.60
2019-05-13T19:51:06.483Z,3.40
2019-05-13T19:53:36.163Z,4.80
2019-05-13T19:56:11.891Z,4.70
2019-05-13T19:58:41.110Z,4.12
2019-05-13T20:01:11.707Z,2.42
2019-05-13T20:03:43.027Z,2.80
2019-05-13T20:06:13.234Z,3.08
2019-05-13T20:08:45.475Z,3.00
2019-05-13T20:11:15.044Z,2.30
2019-05-13T20:13:44.411Z,2.40
2019-05-13T20:16:18.245Z,2.80
2019-05-13T20:18:47.797Z,2.60
2019-05-13T20:21:21.359Z,2.20
2019-05-13T20:23:51.855Z,2.10
2019-05-13T20:26:21.770Z,2.90
2019-05-13T20:28:51.845Z,3.40
2019-05-13T20:31:21.718Z,2.50
2019-05-13T20:33:56.423Z,2.10
2019-05-13T20:36:25.909Z,2.55
2019-05-13T20:39:14.091Z,2.02
2019-05-13T20:41:43.897Z,1.92
2019-05-13T20:44:15.027Z,2.10
2019-05-13T20:46:44.061Z,2.00
2019-05-13T20:49:16.433Z,2.50
2019-05-13T20:51:45.421Z,3.92
2019-05-13T20:54:14.560Z,6.10
2019-05-13T20:56:43.511Z,2.50
2019-05-13T20:59:12.523Z,3.00
2019-05-13T21:01:42.037Z,2.60
2019-05-13T21:04:12.386Z,2.20
2019-05-13T21:06:44.677Z,2.05
2019-05-13T21:09:16.912Z,2.30
2019-05-13T21:11:44.618Z,4.20
2019-05-13T21:14:13.925Z,2.62
2019-05-13T21:16:44.137Z,3.20
2019-05-13T21:19:13.003Z,2.35
2019-05-13T21:21:42.118Z,2.02
2019-05-13T21:24:10.993Z,2.33
2019-05-13T21:26:41.841Z,2.60
2019-05-13T21:29:11.098Z,2.20
2019-05-13T21:31:41.462Z,2.00
2019-05-13T21:34:11.917Z,2.20
2019-05-13T21:36:41.380Z,1.90
2019-05-13T21:39:12.380Z,2.50
2019-05-13T21:41:41.447Z,2.33
2019-05-13T21:44:11.869Z,2.10
2019-05-13T21:46:41.277Z,3.70
2019-05-13T21:49:11.873Z,2.50
2019-05-13T21:51:41.712Z,2.33
2019-05-13T21:54:11.757Z,2.02
2019-05-13T21:56:42.688Z,2.70
2019-05-13T21:59:11.940Z,1.98
2019-05-13T22:01:42.236Z,2.30
2019-05-13T22:04:12.297Z,1.80
2019-05-13T22:06:41.690Z,2.17
2019-05-13T22:09:11.828Z,2.08
2019-05-13T22:11:42.027Z,2.35
2019-05-13T22:14:11.436Z,2.02
2019-05-13T22:16:41.217Z,2.30
2019-05-13T22:19:12.209Z,2.10
2019-05-13T22:21:42.395Z,1.85
2019-05-13T22:24:11.807Z,2.20
2019-05-13T22:26:41.985Z,3.00
2019-05-13T22:29:11.267Z,2.25
2019-05-13T22:31:42.055Z,2.75
2019-05-13T22:34:12.105Z,2.60
2019-05-13T22:36:41.338Z,2.70
2019-05-13T22:39:11.483Z,2.33
2019-05-13T22:41:42.126Z,2.27
2019-05-13T22:44:11.771Z,2.20
2019-05-13T22:46:41.428Z,5.83
2019-05-13T22:49:11.641Z,2.50
2019-05-13T22:51:41.392Z,2.70
2019-05-13T22:54:11.909Z,2.60
2019-05-13T22:56:41.328Z,2.30
2019-05-13T22:59:12.272Z,1.90
2019-05-13T23:01:41.888Z,2.30
2019-05-13T23:04:11.497Z,2.53
2019-05-13T23:06:40.737Z,2.20
2019-05-13T23:09:12.345Z,2.30
2019-05-13T23:11:41.793Z,2.40
2019-05-13T23:14:13.498Z,2.40
2019-05-13T23:16:42.132Z,2.10
2019-05-13T23:19:11.798Z,2.30
2019-05-13T23:21:41.821Z,2.58
2019-05-13T23:24:11.388Z,2.87
2019-05-13T23:26:42.234Z,2.62
2019-05-13T23:29:11.103Z,2.10
2019-05-13T23:31:41.763Z,2.00
2019-05-13T23:34:12.082Z,1.90
2019-05-13T23:36:42.288Z,2.10
2019-05-13T23:39:11.873Z,2.40
2019-05-13T23:41:41.746Z,2.08
2019-05-13T23:44:24.182Z,2.00
2019-05-13T23:46:42.054Z,2.12
2019-05-13T23:49:11.885Z,2.10
2019-05-13T23:51:41.472Z,2.00
2019-05-13T23:54:22.984Z,2.35
2019-05-13T23:56:52.255Z,1.52
2019-05-13T23:59:21.865Z,1.55
